This is the latest recevied weather packets stored in our database for station/object W3SN-13. If no packets are shown the sender has not sent any weather packets the latest 10 day(s).
| Time | Temp. | Humidity | Pressure | Rain* | Wind** | Luminosity | Snow |
|---|---|---|---|---|---|---|---|
| 1788115992 | 31.11° C | 45% | 1013.4 hPa | 0 mm | - | - | - |
| 1788115391 | 31.67° C | 45% | 1013.4 hPa | 0 mm | - | - | - |
| 1788114789 | 31.11° C | 45% | 1013.5 hPa | 0 mm | - | - | - |
| 1788114188 | 30.56° C | 46% | 1013.6 hPa | 0 mm | - | - | - |
| 1788113586 | 30.56° C | 47% | 1013.6 hPa | 0 mm | - | - | - |
| 1788112984 | 30.56° C | 46% | 1013.6 hPa | 0 mm | - | - | - |
| 1788112383 | 30° C | 48% | 1013.6 hPa | 0 mm | - | - | - |
| 1788111781 | 29.44° C | 48% | 1013.6 hPa | 0 mm | - | - | - |
| 1788111179 | 30° C | 46% | 1013.6 hPa | 0 mm | - | - | - |
| 1788110578 | 29.44° C | 48% | 1013.6 hPa | 0 mm | - | - | - |
| 1788109976 | 30° C | 47% | 1013.6 hPa | 0 mm | - | - | - |
| 1788109375 | 30° C | 46% | 1013.6 hPa | 0 mm | - | - | - |
| 1788108773 | 29.44° C | 47% | 1013.6 hPa | 0 mm | - | - | - |
| 1788108171 | 28.89° C | 48% | 1013.7 hPa | 0 mm | - | - | - |
| 1788107570 | 28.33° C | 49% | 1013.6 hPa | 0 mm | - | - | - |
| 1788106968 | 27.22° C | 53% | 1013.8 hPa | 0 mm | - | - | - |
| 1788106367 | 28.33° C | 50% | 1013.8 hPa | 0 mm | - | - | - |
| 1788105766 | 28.33° C | 48% | 1013.8 hPa | 0 mm | - | - | - |
| 1788105164 | 27.78° C | 49% | 1013.9 hPa | 0 mm | - | - | - |
| 1788104563 | 27.22° C | 51% | 1013.9 hPa | 0 mm | - | - | - |
| 1788103961 | 26.11° C | 54% | 1014 hPa | 0 mm | - | - | - |
| 1788103360 | 25.56° C | 59% | 1014.1 hPa | 0 mm | - | - | - |
| 1788102758 | 25.56° C | 60% | 1014.3 hPa | 0 mm | - | - | - |
| 1788102157 | 25° C | 59% | 1014.1 hPa | 0 mm | - | - | - |
| 1788101556 | 25° C | 61% | 1014.1 hPa | 0 mm | - | - | - |
* Rain latest hour (hover to see other rain measurements)
** Current wind speed in m/s (hover to see current wind gust speed)